Time;durP1;ratioP1;P1;durP2;ratioP2;P2;SDS_P1;SDS_P2;PMS_P1;PMS_P2;Temp;Humidity;BMP_temperature;BMP_pressure;BME280_temperature;BME280_humidity;BME280_pressure;Samples;Min_cycle;Max_cycle;Signal;HPM_P1;HPM_P2
2021/04/06 00:00:34;;;;;;;0.50;0.37;;;-0.90;99.90;;;;;;5046046;28;20186;-79
2021/04/06 00:03:02;;;;;;;0.60;0.50;;;-1.00;99.90;;;;;;5045759;28;20208;-78
2021/04/06 00:05:30;;;;;;;0.93;0.43;;;-1.10;99.90;;;;;;5046296;28;20174;-78
2021/04/06 00:07:58;;;;;;;0.70;0.20;;;-1.10;99.90;;;;;;5046523;28;20213;-79
2021/04/06 00:10:35;;;;;;;0.20;0.20;;;-1.20;99.90;;;;;;5045026;28;20185;-79
2021/04/06 00:13:02;;;;;;;0.77;0.37;;;-1.20;99.90;;;;;;5045981;28;20178;-78
2021/04/06 00:15:29;;;;;;;0.63;0.43;;;-1.10;99.90;;;;;;5045517;28;20248;-78
2021/04/06 00:17:59;;;;;;;1.13;0.83;;;-1.00;99.90;;;;;;5044438;28;21103;-78
2021/04/06 00:20:28;;;;;;;0.77;0.53;;;-0.80;99.90;;;;;;5046663;28;20182;-78
2021/04/06 00:22:58;;;;;;;1.23;0.57;;;-0.80;99.90;;;;;;5047634;28;20240;-78
2021/04/06 00:25:29;;;;;;;0.20;0.20;;;-0.70;99.90;;;;;;5044149;28;20186;-79
2021/04/06 00:27:56;;;;;;;0.10;0.10;;;-0.70;99.90;;;;;;5046048;28;20226;-78
2021/04/06 00:30:29;;;;;;;0.37;0.30;;;-0.70;99.90;;;;;;5046519;28;20174;-78
2021/04/06 00:33:21;;;;;;;0.20;0.13;;;-0.60;99.90;;;;;;5045840;28;20297;-78
2021/04/06 00:35:58;;;;;;;0.67;0.30;;;-0.60;99.90;;;;;;5045543;28;20717;-78
2021/04/06 00:38:27;;;;;;;1.13;0.73;;;-0.70;99.90;;;;;;5037529;28;20197;-78
2021/04/06 00:40:58;;;;;;;0.30;0.30;;;-0.60;99.90;;;;;;5044836;28;20194;-79
2021/04/06 00:43:50;;;;;;;0.73;0.37;;;-0.60;99.90;;;;;;5046508;28;20190;-78
2021/04/06 00:46:21;;;;;;;0.53;0.53;;;-0.40;99.90;;;;;;5045245;28;20186;-78
2021/04/06 00:48:52;;;;;;;0.50;0.50;;;-0.40;99.90;;;;;;5046907;28;20233;-78
2021/04/06 00:51:19;;;;;;;0.93;0.47;;;-0.30;99.90;;;;;;5044997;28;20600;-78
2021/04/06 00:53:58;;;;;;;0.40;0.40;;;-0.30;99.90;;;;;;5046646;28;20301;-79
2021/04/06 00:56:27;;;;;;;1.37;1.00;;;-0.30;99.90;;;;;;5043525;28;20174;-78
2021/04/06 00:58:54;;;;;;;0.73;0.30;;;-0.30;99.90;;;;;;5046797;28;20205;-78
2021/04/06 01:01:35;;;;;;;0.50;0.50;;;-0.20;99.90;;;;;;5045019;28;20184;-79
2021/04/06 01:04:20;;;;;;;2.30;1.23;;;-0.20;99.90;;;;;;5045241;28;20193;-79
2021/04/06 01:07:10;;;;;;;0.83;0.60;;;-0.30;99.90;;;;;;5046503;28;20170;-78
2021/04/06 01:09:35;;;;;;;0.40;0.40;;;-0.30;99.90;;;;;;5046058;28;20564;-80
2021/04/06 01:12:05;;;;;;;0.60;0.60;;;-0.40;99.90;;;;;;5043888;28;20831;-79
2021/04/06 01:14:33;;;;;;;0.60;0.40;;;-0.50;99.90;;;;;;5044392;28;20171;-78
2021/04/06 01:17:01;;;;;;;0.33;0.33;;;-0.50;99.90;;;;;;5044684;28;20178;-79
2021/04/06 01:19:29;;;;;;;1.90;0.80;;;-0.40;99.90;;;;;;5046926;28;20186;-77
2021/04/06 01:22:00;;;;;;;0.30;0.30;;;-0.30;99.90;;;;;;5045081;28;20189;-78
2021/04/06 01:24:29;;;;;;;0.33;0.33;;;-0.30;99.90;;;;;;5046037;28;20166;-79
2021/04/06 01:26:59;;;;;;;1.40;0.50;;;-0.30;99.90;;;;;;5044528;28;20205;-78
2021/04/06 01:29:26;;;;;;;0.90;0.60;;;-0.20;99.90;;;;;;5046426;28;20228;-78
2021/04/06 01:31:53;;;;;;;0.67;0.40;;;-0.10;99.90;;;;;;5046361;28;20663;-78
2021/04/06 01:34:19;;;;;;;0.60;0.50;;;0.00;99.90;;;;;;5042659;28;20183;-80
2021/04/06 01:36:46;;;;;;;0.60;0.60;;;-0.10;99.90;;;;;;5046911;28;20181;-78
2021/04/06 01:39:14;;;;;;;0.20;0.20;;;0.00;99.90;;;;;;5048108;28;20294;-79
2021/04/06 01:41:45;;;;;;;0.30;0.30;;;0.00;99.90;;;;;;5047970;28;20182;-79
2021/04/06 01:44:10;;;;;;;0.53;0.50;;;0.00;99.90;;;;;;5048432;28;20186;-79
2021/04/06 01:46:41;;;;;;;0.70;0.53;;;0.10;99.90;;;;;;5049647;28;20270;-78
2021/04/06 01:49:08;;;;;;;1.43;0.57;;;0.10;99.90;;;;;;5048488;28;20221;-78
2021/04/06 01:51:34;;;;;;;0.70;0.57;;;0.20;99.90;;;;;;5048979;28;20192;-78
2021/04/06 01:54:08;;;;;;;0.40;0.40;;;0.20;99.90;;;;;;5049600;28;20182;-77
2021/04/06 01:56:42;;;;;;;0.47;0.47;;;0.20;99.90;;;;;;5046920;28;20270;-79
2021/04/06 01:59:12;;;;;;;0.37;0.37;;;0.20;99.90;;;;;;5047330;28;20516;-77
2021/04/06 02:01:41;;;;;;;0.70;0.70;;;0.30;99.90;;;;;;5064034;28;20236;-78
2021/04/06 02:04:08;;;;;;;0.63;0.63;;;0.30;99.90;;;;;;5047832;28;20233;-79
2021/04/06 02:06:35;;;;;;;0.50;0.50;;;0.20;99.90;;;;;;5048103;28;20668;-78
2021/04/06 02:09:05;;;;;;;0.80;0.70;;;0.20;99.90;;;;;;5046936;28;20214;-79
2021/04/06 02:11:32;;;;;;;2.67;0.63;;;0.20;99.90;;;;;;5047704;28;20179;-79
2021/04/06 02:14:10;;;;;;;1.20;0.60;;;0.40;99.90;;;;;;5046925;28;20186;-78
2021/04/06 02:16:46;;;;;;;0.50;0.50;;;0.40;99.90;;;;;;5047181;28;20647;-78
2021/04/06 02:19:35;;;;;;;0.60;0.60;;;0.30;99.90;;;;;;5047090;28;20558;-77
2021/04/06 02:22:16;;;;;;;0.93;0.60;;;0.20;99.90;;;;;;5047172;28;20186;-78
2021/04/06 02:24:50;;;;;;;2.30;0.90;;;0.30;99.90;;;;;;5043759;28;20174;-78
2021/04/06 02:27:22;;;;;;;1.27;1.13;;;0.30;99.90;;;;;;5046586;28;21350;-79
2021/04/06 02:29:54;;;;;;;1.17;0.83;;;0.30;99.90;;;;;;5048458;28;20175;-79
2021/04/06 02:32:22;;;;;;;1.67;1.57;;;0.40;99.90;;;;;;5046985;28;20181;-79
2021/04/06 02:35:12;;;;;;;1.10;0.97;;;0.30;99.90;;;;;;5046105;28;20178;-79
2021/04/06 02:37:41;;;;;;;0.80;0.80;;;0.40;99.90;;;;;;5043634;28;20218;-78
2021/04/06 02:40:08;;;;;;;2.50;1.50;;;0.30;99.90;;;;;;5047481;28;20283;-79
2021/04/06 02:42:36;;;;;;;1.37;0.70;;;0.40;99.90;;;;;;5047995;28;20193;-78
2021/04/06 02:45:06;;;;;;;3.23;1.60;;;0.40;99.90;;;;;;5047801;28;20237;-77
2021/04/06 02:47:32;;;;;;;0.93;0.93;;;0.40;99.90;;;;;;5047551;28;20206;-78
2021/04/06 02:49:59;;;;;;;3.27;0.73;;;0.40;99.90;;;;;;5046855;28;20182;-78
2021/04/06 02:52:26;;;;;;;0.90;0.80;;;0.40;99.90;;;;;;5049793;28;20177;-79
2021/04/06 02:54:52;;;;;;;1.13;0.90;;;0.40;99.90;;;;;;5064565;22;20263;-77
2021/04/06 02:57:21;;;;;;;0.93;0.70;;;0.30;99.90;;;;;;4987173;28;20200;-77
2021/04/06 02:59:46;;;;;;;0.80;0.73;;;0.20;99.90;;;;;;4986817;28;20181;-78
2021/04/06 03:02:12;;;;;;;0.70;0.63;;;0.20;99.90;;;;;;4987114;28;20246;-77
2021/04/06 03:04:41;;;;;;;0.50;0.50;;;0.10;99.90;;;;;;4987031;28;20562;-79
2021/04/06 03:07:19;;;;;;;0.40;0.40;;;0.10;99.90;;;;;;4986825;28;20188;-78
2021/04/06 03:09:53;;;;;;;0.70;0.70;;;0.00;99.90;;;;;;5003792;28;20286;-77
2021/04/06 03:12:19;;;;;;;1.60;0.60;;;-0.10;99.90;;;;;;4989172;28;21073;-77
2021/04/06 03:14:47;;;;;;;0.70;0.70;;;-0.30;99.90;;;;;;4987507;28;20176;-78
2021/04/06 03:17:13;;;;;;;0.60;0.60;;;-0.50;99.90;;;;;;4988036;28;20208;-77
2021/04/06 03:19:38;;;;;;;1.27;1.17;;;-0.60;99.90;;;;;;4987777;28;20199;-77
2021/04/06 03:22:06;;;;;;;0.60;0.60;;;-0.70;99.90;;;;;;4986369;28;20188;-78
2021/04/06 03:24:33;;;;;;;0.83;0.80;;;-0.80;99.90;;;;;;4986915;28;20582;-77
2021/04/06 03:27:03;;;;;;;1.67;1.00;;;-0.80;99.90;;;;;;4988186;28;20192;-79
2021/04/06 03:29:29;;;;;;;0.77;0.77;;;-0.90;99.90;;;;;;4988939;28;20194;-79
2021/04/06 03:31:57;;;;;;;0.60;0.60;;;-1.10;99.90;;;;;;4988722;28;20670;-78
2021/04/06 03:34:29;;;;;;;1.50;1.10;;;-1.10;99.90;;;;;;4987675;28;20181;-78
2021/04/06 03:36:55;;;;;;;1.77;1.37;;;-1.20;99.90;;;;;;4985487;28;20177;-77
2021/04/06 03:39:20;;;;;;;1.13;0.97;;;-1.20;99.90;;;;;;4988616;28;20231;-78
2021/04/06 03:41:46;;;;;;;2.07;1.30;;;-1.20;99.90;;;;;;4986113;28;20195;-77
2021/04/06 03:44:13;;;;;;;1.47;1.20;;;-1.30;99.90;;;;;;5002770;28;20177;-78
2021/04/06 03:46:41;;;;;;;1.10;0.97;;;-1.30;99.90;;;;;;4985898;28;20180;-79
2021/04/06 03:49:24;;;;;;;2.27;1.33;;;-1.30;99.90;;;;;;4987422;28;20212;-78
2021/04/06 03:51:53;;;;;;;0.73;0.73;;;-1.30;99.90;;;;;;4986857;28;20168;-77
2021/04/06 03:54:40;;;;;;;1.97;1.20;;;-1.30;99.90;;;;;;4986976;28;20204;-78
2021/04/06 04:00:10;;;;;;;0.60;0.60;;;-1.20;99.90;;;;;;4987618;28;20176;-78
2021/04/06 04:02:36;;;;;;;1.50;1.17;;;-1.10;99.90;;;;;;4986458;28;20631;-78
2021/04/06 04:05:03;;;;;;;1.37;1.20;;;-1.10;99.90;;;;;;4986388;28;20717;-78
2021/04/06 04:07:31;;;;;;;1.00;0.80;;;-1.10;99.90;;;;;;4986745;28;20212;-78
2021/04/06 04:09:57;;;;;;;1.03;0.93;;;-1.10;99.90;;;;;;4985284;28;20180;-79
2021/04/06 04:12:22;;;;;;;1.43;1.27;;;-1.20;99.90;;;;;;4986032;28;20199;-78
2021/04/06 04:14:48;;;;;;;0.53;0.53;;;-1.20;99.90;;;;;;4987430;28;20219;-78
2021/04/06 04:17:13;;;;;;;0.50;0.50;;;-1.10;99.90;;;;;;4987690;28;20258;-79
2021/04/06 04:19:39;;;;;;;1.17;0.83;;;-1.00;99.90;;;;;;4987205;28;20184;-78
2021/04/06 04:22:05;;;;;;;1.00;0.93;;;-0.90;99.90;;;;;;4987079;28;20184;-78
2021/04/06 04:24:30;;;;;;;0.40;0.40;;;-0.80;99.90;;;;;;5002059;28;20219;-78
2021/04/06 04:26:56;;;;;;;0.60;0.60;;;-0.70;99.90;;;;;;4986992;28;20191;-79
2021/04/06 04:29:22;;;;;;;0.60;0.60;;;-0.60;99.90;;;;;;4985449;28;21094;-78
2021/04/06 04:31:49;;;;;;;1.00;0.97;;;-0.50;99.90;;;;;;4985831;28;20202;-78
2021/04/06 04:34:15;;;;;;;0.50;0.50;;;-0.40;99.90;;;;;;4987150;28;20238;-77
2021/04/06 04:36:41;;;;;;;0.70;0.70;;;-0.40;99.90;;;;;;4985427;28;20600;-78
2021/04/06 04:39:07;;;;;;;1.00;0.70;;;-0.40;99.90;;;;;;4985727;28;20203;-77
2021/04/06 04:41:33;;;;;;;0.70;0.70;;;-0.30;99.90;;;;;;4985210;28;20215;-79
2021/04/06 04:43:59;;;;;;;0.63;0.57;;;-0.20;99.90;;;;;;4985772;28;20192;-78
2021/04/06 04:46:24;;;;;;;0.70;0.60;;;-0.20;99.90;;;;;;4986713;28;20241;-78
2021/04/06 04:48:50;;;;;;;0.40;0.40;;;-0.20;99.90;;;;;;4986577;28;20219;-78
2021/04/06 04:51:16;;;;;;;0.77;0.57;;;-0.10;99.90;;;;;;4985358;28;20195;-77
2021/04/06 04:53:41;;;;;;;0.47;0.47;;;-0.10;99.90;;;;;;5001215;28;20295;-79
2021/04/06 04:56:07;;;;;;;0.67;0.67;;;0.00;99.90;;;;;;5001271;28;20180;-78
2021/04/06 04:58:33;;;;;;;1.17;0.80;;;0.00;99.90;;;;;;4986093;28;20203;-78
2021/04/06 05:00:59;;;;;;;0.60;0.60;;;0.00;99.90;;;;;;4986576;28;20234;-77
2021/04/06 05:03:24;;;;;;;0.53;0.53;;;0.10;99.90;;;;;;4985153;28;20604;-77
2021/04/06 05:05:50;;;;;;;0.73;0.73;;;0.10;99.90;;;;;;4986239;28;20184;-78
2021/04/06 05:08:15;;;;;;;3.57;0.80;;;0.10;99.90;;;;;;4985206;28;20203;-77
2021/04/06 05:10:41;;;;;;;0.40;0.40;;;0.20;99.90;;;;;;4985237;28;20181;-77
2021/04/06 05:13:06;;;;;;;0.20;0.20;;;0.20;99.90;;;;;;4990971;28;20223;-77
2021/04/06 05:15:33;;;;;;;0.50;0.50;;;0.30;99.90;;;;;;4988789;28;20188;-77
2021/04/06 05:17:59;;;;;;;0.87;0.70;;;0.30;99.90;;;;;;4990111;28;20239;-78
2021/04/06 05:20:25;;;;;;;0.70;0.70;;;0.20;99.90;;;;;;4988646;28;20225;-79
2021/04/06 05:22:50;;;;;;;0.50;0.50;;;0.40;99.90;;;;;;4988449;28;20184;-79
2021/04/06 05:25:16;;;;;;;0.23;0.23;;;0.40;99.90;;;;;;4986932;28;20234;-77
2021/04/06 05:27:42;;;;;;;3.53;1.20;;;0.50;99.90;;;;;;4989096;28;20219;-79
2021/04/06 05:30:09;;;;;;;1.00;0.90;;;0.40;99.90;;;;;;4987497;28;20188;-77
2021/04/06 05:32:34;;;;;;;1.33;0.83;;;0.50;99.90;;;;;;4988882;28;20627;-78
2021/04/06 05:35:00;;;;;;;0.83;0.83;;;0.50;99.90;;;;;;4989909;28;20258;-79
2021/04/06 05:37:25;;;;;;;1.53;1.07;;;0.60;99.90;;;;;;4990942;28;20216;-79
2021/04/06 05:39:51;;;;;;;1.10;1.00;;;0.80;99.90;;;;;;4989835;28;20184;-78
2021/04/06 05:42:17;;;;;;;0.70;0.70;;;0.80;99.90;;;;;;4990335;28;20191;-78
2021/04/06 05:44:45;;;;;;;5.33;1.13;;;0.90;99.90;;;;;;4989548;28;20176;-78
2021/04/06 05:47:36;;;;;;;0.93;0.63;;;0.80;99.90;;;;;;4989256;28;20207;-79
2021/04/06 05:50:06;;;;;;;5.50;1.33;;;0.90;99.90;;;;;;4988767;28;20192;-78
2021/04/06 05:52:33;;;;;;;1.37;1.27;;;1.00;99.90;;;;;;4988662;28;20216;-79
2021/04/06 05:55:01;;;;;;;0.60;0.60;;;1.00;99.90;;;;;;5004875;28;20203;-78
2021/04/06 05:57:27;;;;;;;0.90;0.87;;;1.00;99.90;;;;;;4990665;28;20212;-79
2021/04/06 05:59:52;;;;;;;1.13;0.67;;;1.00;99.90;;;;;;4989520;28;20187;-78
2021/04/06 06:02:18;;;;;;;1.47;1.20;;;1.00;99.90;;;;;;4990452;28;20266;-78
2021/04/06 06:04:44;;;;;;;2.10;1.23;;;1.10;99.90;;;;;;4988685;28;20185;-78
2021/04/06 06:07:12;;;;;;;1.17;1.07;;;1.10;99.90;;;;;;4989194;28;20239;-78
2021/04/06 06:09:37;;;;;;;1.17;0.87;;;1.10;99.90;;;;;;4989172;28;20184;-79
2021/04/06 06:12:06;;;;;;;1.07;0.80;;;1.20;99.90;;;;;;4989407;28;20192;-79
2021/04/06 06:14:43;;;;;;;1.17;0.50;;;1.20;99.90;;;;;;4989564;28;20244;-79
2021/04/06 06:17:15;;;;;;;4.03;1.23;;;1.10;99.90;;;;;;5005081;28;21121;-78
2021/04/06 06:19:42;;;;;;;0.87;0.87;;;1.10;99.90;;;;;;4988997;28;20184;-77
2021/04/06 06:22:12;;;;;;;1.00;0.90;;;1.00;99.90;;;;;;4988408;28;20689;-79
2021/04/06 06:24:40;;;;;;;3.47;0.90;;;0.90;99.90;;;;;;4987150;28;20194;-79
2021/04/06 06:27:21;;;;;;;2.93;0.63;;;0.90;99.90;;;;;;4987571;28;20184;-78
2021/04/06 06:29:47;;;;;;;0.40;0.40;;;0.80;99.90;;;;;;4987872;28;20684;-79
2021/04/06 06:32:21;;;;;;;1.20;0.90;;;0.80;99.90;;;;;;4989453;28;20176;-76
2021/04/06 06:34:49;;;;;;;1.83;1.27;;;0.80;99.90;;;;;;5004335;28;20179;-78
2021/04/06 06:37:23;;;;;;;0.80;0.70;;;0.90;99.90;;;;;;4990527;28;20230;-78
2021/04/06 06:39:49;;;;;;;0.47;0.43;;;0.90;99.90;;;;;;4986968;28;20180;-79
2021/04/06 06:42:16;;;;;;;0.50;0.50;;;1.00;99.90;;;;;;4988113;28;20182;-79
2021/04/06 06:44:43;;;;;;;0.53;0.53;;;1.00;99.90;;;;;;4987070;28;20271;-78
2021/04/06 06:47:31;;;;;;;0.77;0.77;;;1.10;99.90;;;;;;4987907;28;20184;-78
2021/04/06 06:50:10;;;;;;;0.87;0.70;;;1.10;99.90;;;;;;4988684;28;20181;-80
2021/04/06 06:52:35;;;;;;;0.30;0.30;;;1.30;99.90;;;;;;4989091;28;20172;-78
2021/04/06 06:55:18;;;;;;;1.10;0.87;;;1.50;99.90;;;;;;4986432;28;20250;-79
2021/04/06 06:57:44;;;;;;;0.60;0.60;;;1.50;99.90;;;;;;4988206;28;20210;-79
2021/04/06 07:00:15;;;;;;;1.07;0.77;;;1.90;99.90;;;;;;4986212;28;20184;-80
2021/04/06 07:02:43;;;;;;;0.87;0.60;;;2.30;99.90;;;;;;4988487;28;20227;-78
2021/04/06 07:05:18;;;;;;;0.73;0.73;;;2.30;99.90;;;;;;4986141;28;20263;-78
2021/04/06 07:08:01;;;;;;;7.73;0.73;;;2.30;99.90;;;;;;4988697;28;20290;-79
2021/04/06 07:10:38;;;;;;;0.77;0.53;;;2.20;99.90;;;;;;4988456;28;20172;-79
2021/04/06 07:13:08;;;;;;;2.43;1.23;;;2.20;99.90;;;;;;4986398;28;20188;-78
2021/04/06 07:15:38;;;;;;;1.23;1.13;;;2.40;99.90;;;;;;4985220;28;20267;-79
2021/04/06 07:18:07;;;;;;;0.70;0.70;;;2.50;99.90;;;;;;4985591;28;20208;-79
2021/04/06 07:20:38;;;;;;;0.63;0.60;;;2.60;99.90;;;;;;4985878;28;20195;-79
2021/04/06 07:23:08;;;;;;;0.83;0.63;;;2.70;99.90;;;;;;4985738;28;20267;-79
2021/04/06 07:25:34;;;;;;;0.40;0.40;;;3.00;99.90;;;;;;4986654;28;20271;-80
2021/04/06 07:28:01;;;;;;;1.83;0.73;;;3.20;99.90;;;;;;4985444;28;20215;-79
2021/04/06 07:30:27;;;;;;;1.93;0.90;;;3.50;99.90;;;;;;5001475;28;20880;-80
2021/04/06 07:32:53;;;;;;;0.47;0.47;;;3.50;99.90;;;;;;4985515;28;20193;-80
2021/04/06 07:35:19;;;;;;;0.60;0.50;;;3.40;99.90;;;;;;4985297;28;20730;-79
2021/04/06 07:37:47;;;;;;;0.20;0.20;;;3.30;99.90;;;;;;4986041;28;20286;-78
2021/04/06 07:40:16;;;;;;;0.50;0.50;;;3.40;99.90;;;;;;4987048;28;20599;-79
2021/04/06 07:42:44;;;;;;;1.00;0.53;;;3.40;99.90;;;;;;4987190;28;20195;-77
2021/04/06 07:45:22;;;;;;;0.60;0.57;;;3.50;99.90;;;;;;4984061;28;20176;-80
2021/04/06 07:47:48;;;;;;;2.03;1.10;;;3.20;99.90;;;;;;4985607;28;20270;-79
2021/04/06 07:50:32;;;;;;;0.73;0.57;;;3.20;99.90;;;;;;4984329;28;20222;-80
2021/04/06 07:53:30;;;;;;;0.50;0.50;;;3.10;99.90;;;;;;5001665;28;20192;-79
2021/04/06 07:55:58;;;;;;;0.57;0.57;;;3.30;99.90;;;;;;4984829;28;20612;-80
2021/04/06 07:58:44;;;;;;;0.83;0.57;;;3.60;99.90;;;;;;4984787;28;20215;-77
2021/04/06 08:01:10;;;;;;;2.53;0.67;;;3.90;99.90;;;;;;4987749;28;20191;-77
2021/04/06 08:03:56;;;;;;;3.23;0.57;;;3.90;99.90;;;;;;4986546;28;20180;-79
2021/04/06 08:06:25;;;;;;;0.57;0.40;;;3.70;99.90;;;;;;4987738;28;20180;-78
2021/04/06 08:08:50;;;;;;;0.73;0.53;;;3.70;99.90;;;;;;4986520;28;20686;-78
2021/04/06 08:11:16;;;;;;;1.60;0.83;;;3.50;99.90;;;;;;4986188;28;20187;-76
2021/04/06 08:13:44;;;;;;;0.70;0.50;;;3.40;99.90;;;;;;4984188;28;20187;-80
2021/04/06 08:16:18;;;;;;;0.20;0.20;;;3.30;99.90;;;;;;4985482;28;20183;-80
2021/04/06 08:18:54;;;;;;;0.73;0.43;;;3.20;99.90;;;;;;5000761;28;20232;-81
2021/04/06 08:21:25;;;;;;;1.30;0.60;;;3.50;99.90;;;;;;4984568;28;20791;-80
2021/04/06 08:23:51;;;;;;;4.67;1.20;;;3.80;99.90;;;;;;4986216;28;20278;-79
2021/04/06 08:26:28;;;;;;;1.40;0.50;;;3.90;99.90;;;;;;4984153;28;20308;-80
2021/04/06 08:28:55;;;;;;;1.10;0.40;;;4.20;99.90;;;;;;4984046;28;20210;-79
2021/04/06 08:31:31;;;;;;;3.57;0.83;;;4.50;99.90;;;;;;4981389;28;20180;-81
2021/04/06 08:34:26;;;;;;;1.97;0.60;;;4.90;99.90;;;;;;5001432;28;20559;-81
2021/04/06 08:37:05;;;;;;;1.73;0.50;;;4.70;99.90;;;;;;4978233;28;20180;-79
2021/04/06 08:39:35;;;;;;;2.97;1.10;;;4.60;99.90;;;;;;4985586;28;20878;-81
2021/04/06 08:42:03;;;;;;;1.63;0.77;;;4.50;99.90;;;;;;4984598;28;20184;-82
2021/04/06 08:44:29;;;;;;;6.53;0.70;;;4.40;99.90;;;;;;4981979;28;20283;-77
2021/04/06 08:46:55;;;;;;;2.57;1.30;;;4.30;99.90;;;;;;4983902;28;20733;-80
2021/04/06 08:49:25;;;;;;;0.60;0.40;;;4.40;99.90;;;;;;4985093;28;20200;-81
2021/04/06 08:51:59;;;;;;;0.60;0.60;;;4.40;99.90;;;;;;4986860;28;21005;-81
2021/04/06 08:54:30;;;;;;;4.13;1.07;;;4.70;99.90;;;;;;4983275;28;20195;-82
2021/04/06 08:57:00;;;;;;;0.97;0.87;;;4.90;99.90;;;;;;4984716;28;20180;-80
2021/04/06 08:59:37;;;;;;;1.40;0.80;;;5.10;99.90;;;;;;4984031;28;20216;-80
2021/04/06 09:02:12;;;;;;;1.03;1.00;;;5.10;99.90;;;;;;4986203;28;20207;-81
2021/04/06 09:04:56;;;;;;;1.53;0.90;;;5.00;99.90;;;;;;4984930;28;20195;-79
2021/04/06 09:07:22;;;;;;;5.27;1.20;;;4.80;99.90;;;;;;4985125;28;20223;-80
2021/04/06 09:09:52;;;;;;;0.87;0.53;;;4.70;99.90;;;;;;4985021;28;20177;-81
2021/04/06 09:12:18;;;;;;;1.37;0.50;;;4.20;99.90;;;;;;4984927;28;20275;-79
2021/04/06 09:14:45;;;;;;;1.37;1.17;;;4.20;99.90;;;;;;4984945;28;20312;-80
2021/04/06 09:17:10;;;;;;;1.87;1.23;;;4.20;99.90;;;;;;4985351;28;20184;-80
2021/04/06 09:19:39;;;;;;;2.30;1.23;;;4.00;99.90;;;;;;4985928;28;20203;-81
2021/04/06 09:22:08;;;;;;;1.53;0.53;;;4.10;99.90;;;;;;4986671;28;20259;-81
2021/04/06 09:24:34;;;;;;;1.23;0.47;;;4.30;99.90;;;;;;4984875;28;20201;-79
2021/04/06 09:27:01;;;;;;;0.80;0.70;;;4.60;99.90;;;;;;4984984;28;20188;-81
2021/04/06 09:29:34;;;;;;;0.60;0.47;;;4.90;99.90;;;;;;4985861;28;20208;-81
2021/04/06 09:32:03;;;;;;;0.67;0.50;;;5.10;99.90;;;;;;5001151;28;20185;-81
2021/04/06 09:34:35;;;;;;;1.00;0.70;;;4.90;99.90;;;;;;4984612;28;20184;-81
2021/04/06 09:37:05;;;;;;;0.57;0.57;;;5.00;99.90;;;;;;5000970;28;20187;-80
2021/04/06 09:39:31;;;;;;;1.53;0.60;;;5.20;99.90;;;;;;4984458;28;20618;-80
2021/04/06 09:41:58;;;;;;;1.43;0.70;;;5.10;99.90;;;;;;4985539;28;20283;-74
2021/04/06 09:44:27;;;;;;;2.10;0.67;;;5.20;99.90;;;;;;4982968;28;20185;-81
2021/04/06 09:46:59;;;;;;;0.30;0.27;;;5.30;99.90;;;;;;4986286;28;20176;-82
2021/04/06 09:49:31;;;;;;;0.60;0.60;;;5.50;99.90;;;;;;4986250;28;20200;-79
2021/04/06 09:51:58;;;;;;;0.73;0.60;;;5.40;99.90;;;;;;4986595;28;20188;-80
2021/04/06 09:54:33;;;;;;;1.03;0.70;;;5.30;99.90;;;;;;4984932;28;20192;-80
2021/04/06 09:57:00;;;;;;;0.73;0.60;;;5.80;99.90;;;;;;5001669;28;20191;-80
2021/04/06 09:59:27;;;;;;;0.60;0.60;;;6.00;99.90;;;;;;4987032;28;20220;-81
2021/04/06 10:01:55;;;;;;;2.40;0.87;;;5.90;99.90;;;;;;4987868;28;20188;-81
2021/04/06 10:04:41;;;;;;;1.43;0.50;;;5.60;99.90;;;;;;4987409;28;20188;-79
2021/04/06 10:07:13;;;;;;;1.80;0.50;;;5.60;99.90;;;;;;4987789;28;20330;-80
2021/04/06 10:09:42;;;;;;;2.77;0.77;;;5.40;99.90;;;;;;4986397;28;20184;-80
2021/04/06 10:12:09;;;;;;;1.40;1.03;;;5.50;99.90;;;;;;4987950;28;20234;-81
2021/04/06 10:14:36;;;;;;;0.50;0.50;;;5.50;99.90;;;;;;4989482;28;20172;-80
2021/04/06 10:17:12;;;;;;;1.20;0.50;;;5.60;99.90;;;;;;4987630;28;20850;-81
2021/04/06 10:19:40;;;;;;;1.77;0.70;;;5.50;99.90;;;;;;4987383;28;20200;-80
2021/04/06 10:22:12;;;;;;;1.37;0.80;;;5.80;99.90;;;;;;4988380;28;20185;-81
2021/04/06 10:24:45;;;;;;;2.63;0.50;;;5.80;99.90;;;;;;4987812;28;20224;-80
2021/04/06 10:27:18;;;;;;;1.10;0.70;;;5.50;99.90;;;;;;4987998;28;20176;-81
2021/04/06 10:29:51;;;;;;;2.43;1.40;;;5.20;99.90;;;;;;4989173;28;20176;-81
2021/04/06 10:32:27;;;;;;;1.67;0.90;;;4.90;99.90;;;;;;4989312;28;20215;-80
2021/04/06 10:35:11;;;;;;;1.03;0.60;;;4.70;99.90;;;;;;4988671;28;20259;-81
2021/04/06 10:37:55;;;;;;;1.03;0.70;;;4.80;99.90;;;;;;4988905;28;20258;-80
2021/04/06 10:40:24;;;;;;;0.73;0.40;;;5.20;99.90;;;;;;4988738;28;20172;-80
2021/04/06 10:42:52;;;;;;;4.63;0.87;;;6.00;99.90;;;;;;4988193;28;20184;-80
2021/04/06 10:45:20;;;;;;;2.80;1.23;;;6.40;99.90;;;;;;4987357;28;20189;-81
2021/04/06 10:47:49;;;;;;;1.50;1.10;;;6.80;99.90;;;;;;4988959;28;20212;-80
2021/04/06 10:50:15;;;;;;;0.73;0.57;;;6.80;99.90;;;;;;4987149;28;20299;-80
2021/04/06 10:52:41;;;;;;;1.63;0.60;;;7.10;99.90;;;;;;4988730;28;20263;-81
2021/04/06 10:55:07;;;;;;;1.07;0.70;;;7.00;99.90;;;;;;4986247;28;20234;-81
2021/04/06 10:57:37;;;;;;;0.60;0.40;;;7.00;99.90;;;;;;4986208;28;20708;-80
2021/04/06 11:00:25;;;;;;;1.90;0.50;;;7.40;99.90;;;;;;4985069;28;20238;-81
2021/04/06 11:03:17;;;;;;;0.87;0.50;;;7.60;99.90;;;;;;4986817;28;20761;-80
2021/04/06 11:05:44;;;;;;;1.23;0.77;;;7.10;99.90;;;;;;4987298;28;20172;-80
2021/04/06 11:08:22;;;;;;;1.43;0.87;;;6.50;99.90;;;;;;4987131;28;20224;-81
2021/04/06 11:10:49;;;;;;;1.00;0.60;;;5.30;99.90;;;;;;4985689;28;20262;-80
2021/04/06 11:13:15;;;;;;;0.60;0.33;;;4.50;99.90;;;;;;4987317;28;20564;-80
2021/04/06 11:15:41;;;;;;;1.60;0.80;;;3.90;99.90;;;;;;4987196;28;20222;-80
2021/04/06 11:18:08;;;;;;;0.53;0.43;;;3.70;99.90;;;;;;4987378;28;20574;-81
2021/04/06 11:20:34;;;;;;;0.47;0.47;;;3.60;99.90;;;;;;4982143;28;20184;-82
2021/04/06 11:23:00;;;;;;;2.07;0.50;;;3.70;99.90;;;;;;4987514;28;20199;-80
2021/04/06 11:25:25;;;;;;;0.53;0.33;;;3.60;99.90;;;;;;4986068;28;20184;-81
2021/04/06 11:27:52;;;;;;;0.67;0.50;;;3.30;99.90;;;;;;4986749;28;20212;-81
2021/04/06 11:30:18;;;;;;;0.87;0.70;;;3.10;99.90;;;;;;4986554;28;20180;-82
2021/04/06 11:32:44;;;;;;;1.07;0.73;;;2.90;99.90;;;;;;5002797;28;20180;-80
2021/04/06 11:35:11;;;;;;;1.03;0.67;;;3.00;99.90;;;;;;4987916;28;20673;-80
2021/04/06 11:37:36;;;;;;;0.60;0.50;;;3.30;99.90;;;;;;4987034;28;20239;-80
2021/04/06 11:40:03;;;;;;;0.60;0.57;;;3.80;99.90;;;;;;4987874;28;20932;-81
2021/04/06 11:42:28;;;;;;;1.63;0.63;;;4.30;99.90;;;;;;5002775;28;20211;-80
2021/04/06 11:44:54;;;;;;;1.37;0.70;;;4.60;99.90;;;;;;4987530;28;20262;-81
2021/04/06 11:47:20;;;;;;;0.53;0.50;;;5.00;99.90;;;;;;4986139;28;20694;-81
2021/04/06 11:49:45;;;;;;;2.53;1.30;;;5.30;99.90;;;;;;4985548;28;20181;-79
2021/04/06 11:52:11;;;;;;;0.33;0.30;;;5.60;99.90;;;;;;4981768;28;20204;-76
2021/04/06 11:54:37;;;;;;;2.67;0.73;;;5.70;99.90;;;;;;4984756;28;20860;-78
2021/04/06 11:57:03;;;;;;;0.60;0.40;;;5.80;99.90;;;;;;4984900;28;20192;-80
2021/04/06 11:59:30;;;;;;;0.60;0.43;;;6.00;99.90;;;;;;4981403;28;20222;-80
2021/04/06 12:01:56;;;;;;;0.47;0.47;;;6.10;99.90;;;;;;4984347;28;20322;-80
2021/04/06 12:04:22;;;;;;;1.00;0.50;;;6.20;99.90;;;;;;4981537;28;20188;-80
2021/04/06 12:06:48;;;;;;;1.90;0.80;;;6.40;99.90;;;;;;4985752;28;20180;-79
2021/04/06 12:09:14;;;;;;;1.03;0.60;;;6.30;99.90;;;;;;4985874;28;20218;-80
2021/04/06 12:11:39;;;;;;;0.63;0.57;;;6.10;99.90;;;;;;4984924;28;20528;-79
2021/04/06 12:14:06;;;;;;;0.70;0.67;;;6.10;99.90;;;;;;4985646;28;20184;-80
2021/04/06 12:16:32;;;;;;;1.10;0.60;;;6.00;99.90;;;;;;4986094;28;20943;-79
2021/04/06 12:18:57;;;;;;;0.40;0.40;;;6.10;99.90;;;;;;4984587;28;20299;-79
2021/04/06 12:21:23;;;;;;;0.40;0.40;;;6.20;99.90;;;;;;4985538;28;20194;-80
2021/04/06 12:23:49;;;;;;;1.27;1.03;;;6.30;99.90;;;;;;4984333;28;20188;-80
2021/04/06 12:26:14;;;;;;;2.30;0.83;;;6.60;99.90;;;;;;4985714;28;20199;-79
2021/04/06 12:28:40;;;;;;;0.53;0.37;;;6.60;99.90;;;;;;4984937;28;21256;-80
2021/04/06 12:31:06;;;;;;;0.93;0.60;;;5.80;99.90;;;;;;4986695;28;20670;-80
2021/04/06 12:33:32;;;;;;;0.70;0.50;;;5.30;99.90;;;;;;4985199;28;20207;-80
2021/04/06 12:35:59;;;;;;;0.43;0.40;;;5.10;99.90;;;;;;4985479;28;20662;-79
2021/04/06 12:38:25;;;;;;;0.57;0.50;;;5.30;99.90;;;;;;4983819;28;20204;-80
2021/04/06 12:40:51;;;;;;;1.33;0.47;;;5.50;99.90;;;;;;4983962;28;20240;-79
2021/04/06 12:43:17;;;;;;;0.70;0.70;;;5.70;99.90;;;;;;4985027;28;20223;-79
2021/04/06 12:45:42;;;;;;;0.63;0.37;;;5.90;99.90;;;;;;5000323;28;20271;-80
2021/04/06 12:48:08;;;;;;;0.80;0.80;;;5.90;99.90;;;;;;4985437;28;20952;-79
2021/04/06 12:50:34;;;;;;;0.50;0.50;;;5.80;99.90;;;;;;4985135;28;20296;-80
2021/04/06 12:52:59;;;;;;;0.43;0.43;;;6.10;99.90;;;;;;4984510;28;20200;-79
2021/04/06 12:55:27;;;;;;;0.70;0.70;;;6.30;99.90;;;;;;4983719;28;20196;-75
2021/04/06 12:57:54;;;;;;;0.87;0.70;;;6.80;99.90;;;;;;4984553;28;20697;-79
2021/04/06 13:00:20;;;;;;;1.90;1.30;;;6.80;99.90;;;;;;4983500;28;20440;-79
2021/04/06 13:02:45;;;;;;;1.90;1.03;;;6.40;99.90;;;;;;4984591;28;21066;-79
2021/04/06 13:05:13;;;;;;;1.60;1.27;;;6.20;99.90;;;;;;4985729;28;20184;-80
2021/04/06 13:07:39;;;;;;;0.70;0.60;;;5.80;99.90;;;;;;5001558;28;20204;-78
2021/04/06 13:10:05;;;;;;;3.40;0.73;;;4.70;99.90;;;;;;4986303;28;20274;-79